createdAt,value
2023-02-17T00:01:42.587Z,6.43
2023-02-17T00:04:10.326Z,7.07
2023-02-17T00:06:38.126Z,7.18
2023-02-17T00:09:07.659Z,7.13
2023-02-17T00:11:35.413Z,7.50
2023-02-17T00:14:03.181Z,7.70
2023-02-17T00:16:31.026Z,8.35
2023-02-17T00:18:59.682Z,8.52
2023-02-17T00:21:28.821Z,8.90
2023-02-17T00:23:57.688Z,8.30
2023-02-17T00:26:26.821Z,8.93
2023-02-17T00:28:54.916Z,9.57
2023-02-17T00:31:24.506Z,9.82
2023-02-17T00:33:54.958Z,9.10
2023-02-17T00:36:22.824Z,9.82
2023-02-17T00:38:50.713Z,9.68
2023-02-17T00:41:18.856Z,9.00
2023-02-17T00:43:48.493Z,8.48
2023-02-17T00:46:17.129Z,9.38
2023-02-17T00:48:46.336Z,9.40
2023-02-17T00:51:14.115Z,8.85
2023-02-17T00:53:41.918Z,9.38
2023-02-17T00:56:09.903Z,9.85
2023-02-17T00:58:38.364Z,8.95
2023-02-17T01:01:07.598Z,8.60
2023-02-17T01:03:35.353Z,9.60
2023-02-17T01:06:06.860Z,8.90
2023-02-17T01:08:34.779Z,8.98
2023-02-17T01:11:02.658Z,8.05
2023-02-17T01:13:32.529Z,7.93
2023-02-17T01:16:00.594Z,8.20
2023-02-17T01:18:29.691Z,7.75
2023-02-17T01:20:57.434Z,7.65
2023-02-17T01:23:25.450Z,8.23
2023-02-17T01:25:53.834Z,7.85
2023-02-17T01:28:23.238Z,7.85
2023-02-17T01:30:51.021Z,7.75
2023-02-17T01:33:18.823Z,7.15
2023-02-17T01:35:47.910Z,7.20
2023-02-17T01:38:15.674Z,6.95
2023-02-17T01:40:47.438Z,6.72
2023-02-17T01:43:17.295Z,6.88
2023-02-17T01:45:48.001Z,6.22
2023-02-17T01:48:17.112Z,6.28
2023-02-17T01:50:47.043Z,6.82
2023-02-17T01:53:20.425Z,6.25
2023-02-17T01:55:48.791Z,6.63
2023-02-17T01:58:19.006Z,6.35
2023-02-17T02:00:47.798Z,6.20
2023-02-17T02:03:16.468Z,6.80
2023-02-17T02:05:44.402Z,6.32
2023-02-17T02:08:12.854Z,6.40
2023-02-17T02:10:42.031Z,6.68
2023-02-17T02:13:10.340Z,7.13
2023-02-17T02:15:40.984Z,6.25
2023-02-17T02:18:30.188Z,7.40
2023-02-17T02:21:22.174Z,7.28
2023-02-17T02:23:54.394Z,6.93
2023-02-17T02:26:55.488Z,6.88
2023-02-17T02:29:38.088Z,6.50
2023-02-17T02:32:10.849Z,7.55
2023-02-17T02:34:44.259Z,7.07
2023-02-17T02:37:14.927Z,6.90
2023-02-17T02:39:45.098Z,6.22
2023-02-17T02:42:15.629Z,6.32
2023-02-17T02:44:43.757Z,6.70
2023-02-17T02:47:26.410Z,6.40
2023-02-17T02:49:55.835Z,6.57
2023-02-17T02:52:25.904Z,6.85
2023-02-17T02:54:56.013Z,6.78
2023-02-17T02:57:30.867Z,6.63
2023-02-17T03:00:09.302Z,5.63
2023-02-17T03:02:38.724Z,6.53
2023-02-17T03:05:12.441Z,6.18
2023-02-17T03:07:42.272Z,6.05
2023-02-17T03:10:10.481Z,5.70
2023-02-17T03:12:39.157Z,5.90
2023-02-17T03:15:09.687Z,5.45
2023-02-17T03:17:39.298Z,5.35
2023-02-17T03:20:09.788Z,5.80
2023-02-17T03:22:40.500Z,5.00
2023-02-17T03:25:09.100Z,5.68
2023-02-17T03:27:36.881Z,5.95
2023-02-17T03:30:05.037Z,6.13
2023-02-17T03:32:32.837Z,5.90
2023-02-17T03:35:00.729Z,5.47
2023-02-17T03:37:30.020Z,4.85
2023-02-17T03:39:57.786Z,5.40
2023-02-17T03:42:25.472Z,4.90
2023-02-17T03:44:53.169Z,4.65
2023-02-17T03:47:20.891Z,5.20
2023-02-17T03:49:48.607Z,5.18
2023-02-17T03:52:16.309Z,5.32
2023-02-17T03:54:45.367Z,5.03
2023-02-17T03:57:13.184Z,6.05
2023-02-17T03:59:40.849Z,5.38
2023-02-17T04:02:08.777Z,5.50
2023-02-17T04:04:36.544Z,5.50
2023-02-17T04:07:04.371Z,5.22
2023-02-17T04:09:32.068Z,5.05
2023-02-17T04:12:01.147Z,4.70
2023-02-17T04:14:28.870Z,5.30
2023-02-17T04:16:56.570Z,5.40
2023-02-17T04:19:24.292Z,5.35
2023-02-17T04:21:51.991Z,4.55
2023-02-17T04:24:19.804Z,5.07
2023-02-17T04:26:47.507Z,5.60
2023-02-17T04:29:16.550Z,4.97
2023-02-17T04:31:44.501Z,5.25
2023-02-17T04:34:12.259Z,4.65
2023-02-17T04:36:40.001Z,4.82
2023-02-17T04:39:07.695Z,5.13
2023-02-17T04:41:35.366Z,4.60
2023-02-17T04:44:03.156Z,4.95
2023-02-17T04:46:32.240Z,4.40
2023-02-17T04:48:59.999Z,4.70
2023-02-17T04:51:27.730Z,5.30
2023-02-17T04:53:55.434Z,4.70
2023-02-17T04:56:23.122Z,5.18
2023-02-17T04:58:50.846Z,4.95
2023-02-17T05:01:18.584Z,5.10
2023-02-17T05:03:47.651Z,4.80
2023-02-17T05:06:15.371Z,4.95
2023-02-17T05:08:43.156Z,5.28
2023-02-17T05:11:10.893Z,4.90
2023-02-17T05:13:38.635Z,5.20
2023-02-17T05:16:06.704Z,4.38
2023-02-17T05:18:34.658Z,4.75
2023-02-17T05:21:03.786Z,4.60
2023-02-17T05:23:31.520Z,5.10
2023-02-17T05:25:59.260Z,5.07
2023-02-17T05:28:28.196Z,4.30
2023-02-17T05:30:55.896Z,4.60
2023-02-17T05:33:23.668Z,4.50
2023-02-17T05:35:51.413Z,5.05
2023-02-17T05:38:20.681Z,4.60
2023-02-17T05:40:48.431Z,5.20
2023-02-17T05:43:16.191Z,5.00
2023-02-17T05:45:43.902Z,4.13
2023-02-17T05:48:11.628Z,4.28
2023-02-17T05:50:39.349Z,4.93
2023-02-17T05:53:07.084Z,4.45
2023-02-17T05:55:36.724Z,4.82
2023-02-17T05:58:07.622Z,4.30
2023-02-17T06:00:35.348Z,4.13
2023-02-17T06:03:03.099Z,3.95
2023-02-17T06:05:30.853Z,4.18
2023-02-17T06:07:58.768Z,4.30
2023-02-17T06:10:26.566Z,4.28
2023-02-17T06:12:56.144Z,4.30
2023-02-17T06:15:23.913Z,4.45
2023-02-17T06:17:51.664Z,4.03
2023-02-17T06:20:19.543Z,4.13
2023-02-17T06:22:47.315Z,3.92
2023-02-17T06:25:15.113Z,3.50
2023-02-17T06:27:44.130Z,3.35
2023-02-17T06:30:14.997Z,3.97
2023-02-17T06:32:42.752Z,3.75
2023-02-17T06:35:10.536Z,4.30
2023-02-17T06:37:38.270Z,3.63
2023-02-17T06:40:06.918Z,4.00
2023-02-17T06:42:34.622Z,4.20
2023-02-17T06:45:05.991Z,4.13
2023-02-17T06:47:35.252Z,4.85
2023-02-17T06:50:03.273Z,4.43
2023-02-17T06:52:30.961Z,3.80
2023-02-17T06:54:59.434Z,3.65
2023-02-17T06:57:27.163Z,4.20
2023-02-17T06:59:54.893Z,4.38
2023-02-17T07:02:23.598Z,4.55
2023-02-17T07:04:52.913Z,4.32
2023-02-17T07:07:20.681Z,3.92
2023-02-17T07:09:48.363Z,4.43
2023-02-17T07:12:16.243Z,4.45
2023-02-17T07:14:44.344Z,4.70
2023-02-17T07:17:12.056Z,4.90
2023-02-17T07:19:39.789Z,4.53
2023-02-17T07:22:09.010Z,4.28
2023-02-17T07:24:36.775Z,5.20
2023-02-17T07:27:05.844Z,4.80
2023-02-17T07:29:33.674Z,4.65
2023-02-17T07:32:01.500Z,4.32
2023-02-17T07:34:29.302Z,5.18
2023-02-17T07:36:57.045Z,4.20
2023-02-17T07:39:26.516Z,4.32
2023-02-17T07:41:54.369Z,4.03
2023-02-17T07:44:22.073Z,4.55
2023-02-17T07:46:50.414Z,4.65
2023-02-17T07:49:18.247Z,3.78
2023-02-17T07:51:46.013Z,4.60
2023-02-17T07:54:14.241Z,4.07
2023-02-17T07:56:43.569Z,4.30
2023-02-17T07:59:11.616Z,4.00
2023-02-17T08:01:39.514Z,4.20
2023-02-17T08:04:07.278Z,4.65
2023-02-17T08:06:35.304Z,4.60
2023-02-17T08:09:20.586Z,4.20
2023-02-17T08:12:07.088Z,4.50
2023-02-17T08:14:35.318Z,4.50
2023-02-17T08:17:03.025Z,4.50
2023-02-17T08:19:46.705Z,4.78
2023-02-17T08:22:16.436Z,4.05
2023-02-17T08:24:44.148Z,4.20
2023-02-17T08:27:13.412Z,4.63
2023-02-17T08:29:41.724Z,4.63
2023-02-17T08:32:09.702Z,4.38
2023-02-17T08:34:37.592Z,4.93
2023-02-17T08:37:06.310Z,4.45
2023-02-17T08:39:34.609Z,4.18
2023-02-17T08:42:02.769Z,4.03
2023-02-17T08:44:34.462Z,3.90
2023-02-17T08:47:02.166Z,4.45
2023-02-17T08:49:32.384Z,4.68
2023-02-17T08:52:00.492Z,4.13
2023-02-17T08:54:28.275Z,5.55
2023-02-17T08:56:56.365Z,5.00
2023-02-17T08:59:24.167Z,4.47
2023-02-17T09:01:53.345Z,4.93
2023-02-17T09:04:21.198Z,4.32
2023-02-17T09:06:50.547Z,4.57
2023-02-17T09:09:19.314Z,4.75
2023-02-17T09:11:47.075Z,3.92
2023-02-17T09:14:14.948Z,4.18
2023-02-17T09:16:42.683Z,4.13
2023-02-17T09:19:12.041Z,4.38
2023-02-17T09:21:40.012Z,4.40
2023-02-17T09:24:07.838Z,4.10
2023-02-17T09:26:35.967Z,4.70
2023-02-17T09:29:03.897Z,4.55
2023-02-17T09:31:32.068Z,5.43
2023-02-17T09:34:00.340Z,4.10
2023-02-17T09:36:31.792Z,4.72
2023-02-17T09:39:00.308Z,4.65
2023-02-17T09:41:33.147Z,4.80
2023-02-17T09:44:01.392Z,5.30
2023-02-17T09:46:30.630Z,5.05
2023-02-17T09:49:00.183Z,4.57
2023-02-17T09:51:31.310Z,4.60
2023-02-17T09:54:04.107Z,4.15
2023-02-17T09:56:34.369Z,4.28
2023-02-17T09:59:04.496Z,4.18
2023-02-17T10:01:33.071Z,4.90
2023-02-17T10:04:03.820Z,4.82
2023-02-17T10:06:34.810Z,4.15
2023-02-17T10:09:04.920Z,4.60
2023-02-17T10:11:33.544Z,4.20
2023-02-17T10:14:03.810Z,4.43
2023-02-17T10:16:32.901Z,4.45
2023-02-17T10:19:02.996Z,4.90
2023-02-17T10:21:32.560Z,4.70
2023-02-17T10:24:01.965Z,7.25
2023-02-17T10:26:42.648Z,5.72
2023-02-17T10:29:16.200Z,5.53
2023-02-17T10:31:46.120Z,4.05
2023-02-17T10:34:18.038Z,5.85
2023-02-17T10:36:52.161Z,7.57
2023-02-17T10:39:31.337Z,5.13
2023-02-17T10:41:59.100Z,4.55
2023-02-17T10:44:27.044Z,3.92
2023-02-17T10:46:55.343Z,4.15
2023-02-17T10:49:27.169Z,4.47
2023-02-17T10:51:55.223Z,4.05
2023-02-17T10:54:28.198Z,4.20
2023-02-17T10:56:58.497Z,3.85
2023-02-17T10:59:29.673Z,4.18
2023-02-17T11:01:59.385Z,4.25
2023-02-17T11:04:27.238Z,3.88
2023-02-17T11:06:55.960Z,3.75
2023-02-17T11:09:28.812Z,4.00
2023-02-17T11:12:00.192Z,3.80
2023-02-17T11:14:29.244Z,3.60
2023-02-17T11:16:59.139Z,4.30
2023-02-17T11:19:28.024Z,3.58
2023-02-17T11:21:58.447Z,3.22
2023-02-17T11:24:28.296Z,3.85
2023-02-17T11:26:56.751Z,3.85
2023-02-17T11:29:24.503Z,3.67
2023-02-17T11:31:56.287Z,3.38
2023-02-17T11:34:24.460Z,3.70
2023-02-17T11:36:58.991Z,3.78
2023-02-17T11:39:28.205Z,3.08
2023-02-17T11:41:55.989Z,3.45
2023-02-17T11:44:24.782Z,3.78
2023-02-17T11:46:56.315Z,3.78
2023-02-17T11:49:34.769Z,3.38
2023-02-17T11:52:09.111Z,4.32
2023-02-17T11:54:46.500Z,3.97
2023-02-17T11:57:20.531Z,3.00
2023-02-17T11:59:55.242Z,3.78
2023-02-17T12:04:55.180Z,3.38
2023-02-17T12:07:32.989Z,3.35
2023-02-17T12:10:05.674Z,3.25
2023-02-17T12:12:39.862Z,3.72
2023-02-17T12:15:17.053Z,3.95
2023-02-17T12:17:52.380Z,4.00
2023-02-17T12:20:32.650Z,4.03
2023-02-17T12:23:05.845Z,5.10
2023-02-17T12:25:38.893Z,4.90
2023-02-17T12:28:11.757Z,4.32
2023-02-17T12:30:46.151Z,4.82
2023-02-17T12:33:29.591Z,4.45
2023-02-17T12:35:58.675Z,4.75
2023-02-17T12:38:27.382Z,4.40
2023-02-17T12:41:03.639Z,3.78
2023-02-17T12:43:33.608Z,4.28
2023-02-17T12:46:04.351Z,3.75
2023-02-17T12:48:35.174Z,4.28
2023-02-17T12:51:06.684Z,5.00
2023-02-17T12:53:40.602Z,4.53
2023-02-17T12:56:24.518Z,4.43
2023-02-17T12:58:53.311Z,4.05
2023-02-17T13:01:22.271Z,4.72
2023-02-17T13:03:50.138Z,4.13
2023-02-17T13:06:21.940Z,4.03
2023-02-17T13:08:51.476Z,4.05
2023-02-17T13:11:28.587Z,4.47
2023-02-17T13:13:56.413Z,4.68
2023-02-17T13:16:24.194Z,3.88
2023-02-17T13:18:52.961Z,4.65
2023-02-17T13:21:28.854Z,4.53
2023-02-17T13:24:00.837Z,4.43
2023-02-17T13:26:31.184Z,3.83
2023-02-17T13:29:10.015Z,3.80
2023-02-17T13:31:48.257Z,3.80
2023-02-17T13:34:25.417Z,4.45
2023-02-17T13:36:53.190Z,4.32
2023-02-17T13:39:32.637Z,4.22
2023-02-17T13:42:02.357Z,3.80
2023-02-17T13:44:31.137Z,3.90
2023-02-17T13:47:00.744Z,4.72
2023-02-17T13:49:32.840Z,4.45
2023-02-17T13:52:17.279Z,3.92
2023-02-17T13:54:52.378Z,4.13
2023-02-17T13:57:25.529Z,4.80
2023-02-17T13:59:53.250Z,4.20
2023-02-17T14:02:35.521Z,5.05
2023-02-17T14:05:10.937Z,4.80
2023-02-17T14:10:17.106Z,4.90
2023-02-17T14:12:46.219Z,4.60
2023-02-17T14:15:15.975Z,5.15
2023-02-17T14:17:43.796Z,5.57
2023-02-17T14:20:25.846Z,4.60
2023-02-17T14:23:04.325Z,4.25
2023-02-17T14:25:33.474Z,5.75
2023-02-17T14:28:02.636Z,5.18
2023-02-17T14:30:31.108Z,5.07
2023-02-17T14:33:02.724Z,5.13
2023-02-17T14:35:30.686Z,4.50
2023-02-17T14:38:07.733Z,5.07
2023-02-17T14:40:35.632Z,4.93
2023-02-17T14:43:04.674Z,4.53
2023-02-17T14:45:32.481Z,4.50
2023-02-17T14:48:00.202Z,5.00
2023-02-17T14:50:28.318Z,4.97
2023-02-17T14:52:56.581Z,4.80
2023-02-17T14:55:29.187Z,4.78
2023-02-17T14:57:56.983Z,4.65
2023-02-17T15:00:27.750Z,5.35
2023-02-17T15:02:55.649Z,5.15
2023-02-17T15:05:23.384Z,4.85
2023-02-17T15:07:51.357Z,5.18
2023-02-17T15:10:20.552Z,4.65
2023-02-17T15:12:48.568Z,5.18
2023-02-17T15:15:17.313Z,4.72
2023-02-17T15:17:46.568Z,5.30
2023-02-17T15:20:15.749Z,4.75
2023-02-17T15:22:44.352Z,4.65
2023-02-17T15:25:16.057Z,4.95
2023-02-17T15:27:45.816Z,5.13
2023-02-17T15:30:17.371Z,5.97
2023-02-17T15:32:46.988Z,5.57
2023-02-17T15:35:17.880Z,5.43
2023-02-17T15:37:45.631Z,5.70
2023-02-17T15:40:17.314Z,5.45
2023-02-17T15:42:45.611Z,5.05
2023-02-17T15:45:15.272Z,6.22
2023-02-17T15:47:43.346Z,4.93
2023-02-17T15:50:20.447Z,5.50
2023-02-17T15:52:48.763Z,5.18
2023-02-17T15:55:17.248Z,5.15
2023-02-17T15:57:46.599Z,5.93
2023-02-17T16:00:21.705Z,4.95
2023-02-17T16:02:49.605Z,5.75
2023-02-17T16:05:19.709Z,4.97
2023-02-17T16:07:48.052Z,5.18
2023-02-17T16:10:16.947Z,4.90
2023-02-17T16:12:45.688Z,5.05
2023-02-17T16:15:15.040Z,5.10
2023-02-17T16:17:42.944Z,4.93
2023-02-17T16:20:19.162Z,5.50
2023-02-17T16:22:47.371Z,5.40
2023-02-17T16:25:16.443Z,5.22
2023-02-17T16:27:44.809Z,6.22
2023-02-17T16:30:19.853Z,4.95
2023-02-17T16:32:47.800Z,5.18
2023-02-17T16:35:16.532Z,5.13
2023-02-17T16:37:49.837Z,5.75
2023-02-17T16:40:18.535Z,6.03
2023-02-17T16:42:46.505Z,6.05
2023-02-17T16:45:15.548Z,5.65
2023-02-17T16:47:45.387Z,5.80
2023-02-17T16:50:17.573Z,6.13
2023-02-17T16:52:45.287Z,5.50
2023-02-17T16:55:17.557Z,5.57
2023-02-17T16:57:46.568Z,5.53
2023-02-17T17:00:16.669Z,6.72
2023-02-17T17:02:44.537Z,5.53
2023-02-17T17:05:13.053Z,5.82
2023-02-17T17:07:41.387Z,5.55
2023-02-17T17:10:16.686Z,5.28
2023-02-17T17:12:46.510Z,5.65
2023-02-17T17:15:14.438Z,6.35
2023-02-17T17:17:43.675Z,5.47
2023-02-17T17:20:14.572Z,5.85
2023-02-17T17:22:42.331Z,6.38
2023-02-17T17:25:10.133Z,5.78
2023-02-17T17:27:38.112Z,6.25
2023-02-17T17:30:08.337Z,6.75
2023-02-17T17:32:36.729Z,5.70
2023-02-17T17:35:05.488Z,6.50
2023-02-17T17:37:34.691Z,5.68
2023-02-17T17:40:04.976Z,5.78
2023-02-17T17:42:33.030Z,5.32
2023-02-17T17:45:00.818Z,5.35
2023-02-17T17:47:30.620Z,6.22
2023-02-17T17:49:58.693Z,5.57
2023-02-17T17:52:26.510Z,6.22
2023-02-17T17:54:54.169Z,5.72
2023-02-17T17:57:22.539Z,5.32
2023-02-17T17:59:50.491Z,5.93
2023-02-17T18:02:18.331Z,5.82
2023-02-17T18:04:47.484Z,6.00
2023-02-17T18:07:15.390Z,5.80
2023-02-17T18:09:43.236Z,5.78
2023-02-17T18:12:12.437Z,6.38
2023-02-17T18:14:41.029Z,5.88
2023-02-17T18:17:09.969Z,5.82
2023-02-17T18:19:37.722Z,6.20
2023-02-17T18:22:06.851Z,5.75
2023-02-17T18:24:34.798Z,6.03
2023-02-17T18:27:02.522Z,5.18
2023-02-17T18:29:30.451Z,6.40
2023-02-17T18:31:59.166Z,6.03
2023-02-17T18:34:27.120Z,5.80
2023-02-17T18:36:54.849Z,6.20
2023-02-17T18:39:23.939Z,5.45
2023-02-17T18:41:51.745Z,5.70
2023-02-17T18:44:19.512Z,5.80
2023-02-17T18:46:47.312Z,4.85
2023-02-17T18:49:15.116Z,5.10
2023-02-17T18:51:42.876Z,4.72
2023-02-17T18:54:11.105Z,4.95
2023-02-17T18:56:40.154Z,5.25
2023-02-17T18:59:08.029Z,5.60
2023-02-17T19:01:38.662Z,4.80
2023-02-17T19:04:06.619Z,5.25
2023-02-17T19:06:35.497Z,4.70
2023-02-17T19:09:04.577Z,5.45
2023-02-17T19:11:33.291Z,5.43
2023-02-17T19:14:03.196Z,5.22
2023-02-17T19:16:31.991Z,5.15
2023-02-17T19:19:00.253Z,5.53
2023-02-17T19:21:28.475Z,4.68
2023-02-17T19:23:56.262Z,5.45
2023-02-17T19:26:24.008Z,6.30
2023-02-17T19:29:02.357Z,5.07
2023-02-17T19:31:35.220Z,5.28
2023-02-17T19:34:03.035Z,7.13
2023-02-17T19:36:31.324Z,5.28
2023-02-17T19:38:59.387Z,6.03
2023-02-17T19:41:27.287Z,4.85
2023-02-17T19:43:55.172Z,5.70
2023-02-17T19:46:28.979Z,5.47
2023-02-17T19:48:58.365Z,4.78
2023-02-17T19:51:26.907Z,4.97
2023-02-17T19:53:58.551Z,5.32
2023-02-17T19:56:30.404Z,4.72
2023-02-17T19:58:59.032Z,5.03
2023-02-17T20:01:27.805Z,4.95
2023-02-17T20:03:56.111Z,4.82
2023-02-17T20:06:26.757Z,5.20
2023-02-17T20:08:55.552Z,5.32
2023-02-17T20:11:23.806Z,5.05
2023-02-17T20:13:51.590Z,4.47
2023-02-17T20:16:20.045Z,4.95
2023-02-17T20:18:48.791Z,5.25
2023-02-17T20:21:17.529Z,4.70
2023-02-17T20:23:47.084Z,5.75
2023-02-17T20:26:16.666Z,5.47
2023-02-17T20:28:44.722Z,5.50
2023-02-17T20:31:13.113Z,5.05
2023-02-17T20:33:41.441Z,5.32
2023-02-17T20:36:10.102Z,4.32
2023-02-17T20:38:38.241Z,5.85
2023-02-17T20:41:08.196Z,4.75
2023-02-17T20:43:37.630Z,5.40
2023-02-17T20:46:05.647Z,5.43
2023-02-17T20:48:33.440Z,5.38
2023-02-17T20:51:01.197Z,5.70
2023-02-17T20:53:28.942Z,5.60
2023-02-17T20:55:56.966Z,5.20
2023-02-17T20:58:26.138Z,5.93
2023-02-17T21:00:53.902Z,5.75
2023-02-17T21:03:21.797Z,5.53
2023-02-17T21:05:49.688Z,5.25
2023-02-17T21:08:17.392Z,5.72
2023-02-17T21:10:45.479Z,5.32
2023-02-17T21:13:13.294Z,5.95
2023-02-17T21:15:42.499Z,4.68
2023-02-17T21:18:10.230Z,4.63
2023-02-17T21:20:37.965Z,4.90
2023-02-17T21:23:05.843Z,5.18
2023-02-17T21:25:33.931Z,4.40
2023-02-17T21:28:01.633Z,4.13
2023-02-17T21:30:29.793Z,5.05
2023-02-17T21:32:59.003Z,4.47
2023-02-17T21:35:26.795Z,4.25
2023-02-17T21:37:54.885Z,4.43
2023-02-17T21:40:22.660Z,4.13
2023-02-17T21:43:07.854Z,4.80
2023-02-17T21:48:04.764Z,4.28
2023-02-17T21:50:32.524Z,4.65
2023-02-17T21:53:00.295Z,5.25
2023-02-17T21:55:28.040Z,6.38
2023-02-17T21:57:55.756Z,6.95
2023-02-17T22:00:23.629Z,11.02
2023-02-17T22:02:51.342Z,7.40
2023-02-17T22:05:20.636Z,4.95
2023-02-17T22:07:49.046Z,4.22
2023-02-17T22:10:17.139Z,5.72
2023-02-17T22:12:45.028Z,6.20
2023-02-17T22:15:12.719Z,5.72
2023-02-17T22:17:40.410Z,4.70
2023-02-17T22:20:09.382Z,4.40
2023-02-17T22:22:38.484Z,4.50
2023-02-17T22:25:06.604Z,4.68
2023-02-17T22:27:34.577Z,5.50
2023-02-17T22:30:02.740Z,4.40
2023-02-17T22:32:30.907Z,4.90
2023-02-17T22:34:58.781Z,5.13
2023-02-17T22:37:26.528Z,4.00
2023-02-17T22:39:56.169Z,4.40
2023-02-17T22:42:24.606Z,4.07
2023-02-17T22:44:52.512Z,4.30
2023-02-17T22:47:20.627Z,4.55
2023-02-17T22:49:48.550Z,3.67
2023-02-17T22:52:16.336Z,3.85
2023-02-17T22:54:44.118Z,3.60
2023-02-17T22:57:13.364Z,4.43
2023-02-17T22:59:41.038Z,3.38
2023-02-17T23:02:08.790Z,4.35
2023-02-17T23:04:36.633Z,3.90
2023-02-17T23:07:04.724Z,3.67
2023-02-17T23:09:32.485Z,3.97
2023-02-17T23:12:00.819Z,4.32
2023-02-17T23:14:32.629Z,4.18
2023-02-17T23:17:01.480Z,3.78
2023-02-17T23:19:29.683Z,4.45
2023-02-17T23:21:58.562Z,4.38
2023-02-17T23:24:27.481Z,4.18
2023-02-17T23:26:56.046Z,4.10
2023-02-17T23:29:23.847Z,4.75
2023-02-17T23:31:53.541Z,4.57
2023-02-17T23:34:21.628Z,4.40
2023-02-17T23:36:49.650Z,5.13
2023-02-17T23:39:17.802Z,5.03
2023-02-17T23:41:45.728Z,4.75
2023-02-17T23:44:14.116Z,4.95
2023-02-17T23:46:42.423Z,4.35
2023-02-17T23:49:13.120Z,4.68
2023-02-17T23:51:40.888Z,4.70
2023-02-17T23:54:08.637Z,4.97
2023-02-17T23:56:37.181Z,4.43
2023-02-17T23:59:04.928Z,4.43
